createdAt,value
2019-03-04T00:00:53.404Z,98131.02
2019-03-04T00:03:22.453Z,98117.48
2019-03-04T00:05:51.491Z,98104.58
2019-03-04T00:08:20.518Z,98091.32
2019-03-04T00:10:49.642Z,98103.86
2019-03-04T00:13:18.692Z,98094.66
2019-03-04T00:15:47.738Z,98108.20
2019-03-04T00:18:16.779Z,98115.03
2019-03-04T00:20:45.853Z,98085.59
2019-03-04T00:23:14.947Z,98082.20
2019-03-04T00:25:43.949Z,98070.52
2019-03-04T00:28:12.975Z,98062.31
2019-03-04T00:30:42.009Z,98069.27
2019-03-04T00:33:11.060Z,98063.92
2019-03-04T00:35:40.175Z,98055.65
2019-03-04T00:38:09.226Z,98060.69
2019-03-04T00:40:38.329Z,98042.82
2019-03-04T00:43:07.387Z,98031.53
2019-03-04T00:45:36.464Z,98019.03
2019-03-04T00:48:05.500Z,98007.58
2019-03-04T00:50:34.577Z,97979.05
2019-03-04T00:53:03.648Z,97993.97
2019-03-04T00:55:32.689Z,97975.04
2019-03-04T00:58:01.732Z,97963.66
2019-03-04T01:00:30.764Z,97960.50
2019-03-04T01:02:59.728Z,97962.20
2019-03-04T01:05:28.793Z,97956.00
2019-03-04T01:07:57.848Z,97937.21
2019-03-04T01:10:26.812Z,97948.50
2019-03-04T01:12:55.805Z,97959.16
2019-03-04T01:15:24.792Z,97951.82
2019-03-04T01:17:53.818Z,97965.91
2019-03-04T01:20:22.800Z,97970.45
2019-03-04T01:22:51.670Z,97960.17
2019-03-04T01:25:20.687Z,97962.56
2019-03-04T01:27:49.769Z,97943.34
2019-03-04T01:30:21.371Z,97945.50
2019-03-04T01:32:50.942Z,97813.13
2019-03-04T01:35:19.979Z,97958.34
2019-03-04T01:37:49.048Z,97941.79
2019-03-04T01:40:19.752Z,97955.22
2019-03-04T01:42:48.831Z,97931.98
2019-03-04T01:45:17.999Z,97928.52
2019-03-04T01:47:47.107Z,97908.77
2019-03-04T01:50:17.185Z,97901.81
2019-03-04T01:52:46.665Z,97902.27
2019-03-04T01:55:16.393Z,97896.30
2019-03-04T01:57:45.453Z,97918.38
2019-03-04T02:00:16.381Z,97902.20
2019-03-04T02:02:45.485Z,97866.97
2019-03-04T02:05:14.628Z,97846.28
2019-03-04T02:07:43.811Z,97839.27
2019-03-04T02:10:17.597Z,97834.84
2019-03-04T02:12:46.682Z,97845.75
2019-03-04T02:15:17.670Z,97802.50
2019-03-04T02:17:46.781Z,97849.05
2019-03-04T02:20:17.054Z,97835.58
2019-03-04T02:22:46.131Z,97825.05
2019-03-04T02:25:17.186Z,97818.23
2019-03-04T02:27:52.085Z,97807.77
2019-03-04T02:30:26.241Z,97817.78
2019-03-04T02:32:55.306Z,97803.87
2019-03-04T02:35:24.388Z,97786.66
2019-03-04T02:37:53.459Z,97773.75
2019-03-04T02:40:22.573Z,97732.02
2019-03-04T02:42:51.693Z,97725.89
2019-03-04T02:45:20.760Z,97720.33
2019-03-04T02:47:49.837Z,97734.04
2019-03-04T02:50:18.952Z,97743.35
2019-03-04T02:52:48.028Z,97717.80
2019-03-04T02:55:17.448Z,97717.06
2019-03-04T02:57:46.530Z,97716.86
2019-03-04T03:00:16.591Z,97722.38
2019-03-04T03:02:45.656Z,97704.27
2019-03-04T03:05:14.733Z,97685.37
2019-03-04T03:07:43.797Z,97689.80
2019-03-04T03:10:13.202Z,97680.21
2019-03-04T03:12:42.283Z,97684.73
2019-03-04T03:15:11.579Z,97666.13
2019-03-04T03:17:40.668Z,97660.94
2019-03-04T03:20:10.733Z,97691.87
2019-03-04T03:22:39.806Z,97664.36
2019-03-04T03:25:08.991Z,97654.59
2019-03-04T03:27:38.022Z,97645.86
2019-03-04T03:30:08.845Z,97641.80
2019-03-04T03:32:37.972Z,97614.17
2019-03-04T03:35:08.806Z,97607.70
2019-03-04T03:37:38.150Z,97608.19
2019-03-04T03:40:08.824Z,97572.64
2019-03-04T03:42:37.876Z,97556.58
2019-03-04T03:45:07.081Z,97553.87
2019-03-04T03:47:36.129Z,97528.22
2019-03-04T03:50:05.692Z,97521.16
2019-03-04T03:52:34.766Z,97528.88
2019-03-04T03:55:03.817Z,97521.84
2019-03-04T03:57:32.837Z,97514.40
2019-03-04T04:00:01.925Z,97502.46
2019-03-04T04:02:30.985Z,97530.66
2019-03-04T04:05:00.040Z,97562.55
2019-03-04T04:07:29.108Z,97545.07
2019-03-04T04:09:58.106Z,97578.26
2019-03-04T04:12:27.193Z,97510.09
2019-03-04T04:14:56.255Z,97521.09
2019-03-04T04:17:25.342Z,97506.98
2019-03-04T04:19:54.406Z,97476.41
2019-03-04T04:22:23.441Z,97476.70
2019-03-04T04:24:52.718Z,97467.33
2019-03-04T04:27:21.864Z,97431.13
2019-03-04T04:29:50.926Z,97431.03
2019-03-04T04:32:20.025Z,97425.77
2019-03-04T04:34:49.073Z,97422.20
2019-03-04T04:37:18.166Z,97424.25
2019-03-04T04:39:47.261Z,97420.56
2019-03-04T04:42:16.310Z,97395.37
2019-03-04T04:44:45.380Z,97429.89
2019-03-04T04:47:14.480Z,97411.09
2019-03-04T04:49:43.540Z,97421.99
2019-03-04T04:52:12.655Z,97435.90
2019-03-04T04:54:41.732Z,97442.48
2019-03-04T04:57:10.831Z,97460.91
2019-03-04T04:59:39.941Z,97427.63
2019-03-04T05:02:09.036Z,97410.69
2019-03-04T05:04:38.228Z,97396.69
2019-03-04T05:07:07.338Z,97384.35
2019-03-04T05:09:36.424Z,97409.66
2019-03-04T05:12:05.497Z,97394.80
2019-03-04T05:14:34.573Z,97410.97
2019-03-04T05:17:03.595Z,97369.70
2019-03-04T05:19:32.709Z,97362.09
2019-03-04T05:22:01.891Z,97378.05
2019-03-04T05:24:31.005Z,97363.00
2019-03-04T05:27:00.080Z,97352.48
2019-03-04T05:29:29.145Z,97335.64
2019-03-04T05:31:58.168Z,97332.64
2019-03-04T05:34:27.237Z,97326.27
2019-03-04T05:36:56.807Z,97323.62
2019-03-04T05:39:25.987Z,97319.89
2019-03-04T05:41:55.043Z,97317.87
2019-03-04T05:44:24.165Z,97303.89
2019-03-04T05:46:53.214Z,97342.06
2019-03-04T05:49:22.286Z,97291.67
2019-03-04T05:51:51.338Z,97282.70
2019-03-04T05:54:20.451Z,97275.59
2019-03-04T05:56:49.592Z,97247.30
2019-03-04T05:59:19.957Z,97263.95
2019-03-04T06:02:09.631Z,97250.88
2019-03-04T06:04:39.993Z,97278.89
2019-03-04T06:07:13.723Z,97235.18
2019-03-04T06:09:42.785Z,97234.16
2019-03-04T06:12:11.808Z,97219.14
2019-03-04T06:14:40.939Z,97225.16
2019-03-04T06:17:09.967Z,97183.70
2019-03-04T06:19:39.092Z,97276.77
2019-03-04T06:22:08.153Z,97475.41
2019-03-04T06:24:37.290Z,97468.61
2019-03-04T06:27:06.412Z,97428.20
2019-03-04T06:29:35.513Z,97420.30
2019-03-04T06:32:04.634Z,97427.34
2019-03-04T06:34:33.703Z,97429.16
2019-03-04T06:37:02.802Z,97426.97
2019-03-04T06:39:31.919Z,97445.70
2019-03-04T06:42:00.957Z,97431.25
2019-03-04T06:44:30.064Z,97476.22
2019-03-04T06:46:59.154Z,97474.36
2019-03-04T06:49:28.303Z,97442.47
2019-03-04T06:51:58.021Z,97444.69
2019-03-04T06:55:00.401Z,97416.00
2019-03-04T06:57:36.002Z,97395.50
2019-03-04T07:00:31.730Z,97411.47
2019-03-04T07:03:05.047Z,97391.63
2019-03-04T07:05:50.954Z,97341.07
2019-03-04T07:09:11.802Z,97369.92
2019-03-04T07:11:52.912Z,97355.84
2019-03-04T07:14:22.018Z,97358.55
2019-03-04T07:16:52.350Z,97376.16
2019-03-04T07:19:29.106Z,97372.28
2019-03-04T07:21:58.203Z,97375.45
2019-03-04T07:24:27.239Z,97351.20
2019-03-04T07:26:56.303Z,97373.55
2019-03-04T07:29:25.366Z,97403.20
2019-03-04T07:31:54.444Z,97384.51
2019-03-04T07:34:23.521Z,97377.45
2019-03-04T07:36:52.615Z,97388.41
2019-03-04T07:39:21.686Z,97363.84
2019-03-04T07:41:52.634Z,97371.09
2019-03-04T07:44:21.761Z,97363.16
2019-03-04T07:46:51.363Z,97381.11
2019-03-04T07:49:20.536Z,97374.77
2019-03-04T07:51:49.711Z,97381.03
2019-03-04T07:54:19.093Z,97380.73
2019-03-04T07:56:48.232Z,97377.82
2019-03-04T07:59:17.388Z,97394.37
2019-03-04T08:01:46.480Z,97367.56
2019-03-04T08:04:15.582Z,97383.53
2019-03-04T08:06:44.619Z,97364.55
2019-03-04T08:09:55.414Z,97399.08
2019-03-04T08:13:08.761Z,97385.61
2019-03-04T08:15:40.359Z,97381.24
2019-03-04T08:18:09.626Z,97383.92
2019-03-04T08:20:38.754Z,97397.42
2019-03-04T08:23:10.015Z,97384.67
2019-03-04T08:25:38.655Z,97509.52
2019-03-04T08:28:09.100Z,97388.11
2019-03-04T08:30:38.200Z,97388.61
2019-03-04T08:33:07.337Z,97400.72
2019-03-04T08:35:36.866Z,97390.98
2019-03-04T08:38:05.925Z,97419.27
2019-03-04T08:40:35.013Z,97423.64
2019-03-04T08:43:04.140Z,97420.84
2019-03-04T08:45:33.358Z,97432.47
2019-03-04T08:48:02.639Z,97431.82
2019-03-04T08:50:31.848Z,97426.85
2019-03-04T08:53:00.915Z,97433.66
2019-03-04T08:55:30.040Z,97403.36
2019-03-04T08:57:59.178Z,97427.11
2019-03-04T09:00:28.707Z,97455.45
2019-03-04T09:02:57.802Z,97420.86
2019-03-04T09:05:26.882Z,97424.52
2019-03-04T09:07:56.005Z,97420.23
2019-03-04T09:10:26.919Z,97436.09
2019-03-04T09:12:55.990Z,97404.51
2019-03-04T09:15:25.179Z,97428.66
2019-03-04T09:17:54.283Z,97406.42
2019-03-04T09:20:23.699Z,97417.49
2019-03-04T09:22:52.853Z,97418.86
2019-03-04T09:25:30.651Z,97416.81
2019-03-04T09:27:59.171Z,97416.84
2019-03-04T09:30:28.322Z,97433.02
2019-03-04T09:32:57.454Z,97426.99
2019-03-04T09:35:26.669Z,97418.29
2019-03-04T09:37:55.712Z,97422.97
2019-03-04T09:40:26.406Z,97441.28
2019-03-04T09:42:55.497Z,97396.48
2019-03-04T09:45:24.614Z,97436.72
2019-03-04T09:47:53.681Z,97435.27
2019-03-04T09:50:22.836Z,97400.58
2019-03-04T09:52:51.895Z,97404.41
2019-03-04T09:55:20.977Z,97454.06
2019-03-04T09:57:50.043Z,97415.07
2019-03-04T10:00:46.289Z,97420.47
2019-03-04T10:04:02.590Z,97415.89
2019-03-04T10:06:57.463Z,97413.66
2019-03-04T10:09:44.897Z,97414.27
2019-03-04T10:12:49.880Z,97430.78
2019-03-04T10:15:39.537Z,97399.20
2019-03-04T10:18:51.595Z,97406.92
2019-03-04T10:21:53.821Z,97401.67
2019-03-04T10:24:50.684Z,97405.50
2019-03-04T10:27:56.393Z,97410.30
2019-03-04T10:30:39.799Z,97395.37
2019-03-04T10:34:04.135Z,97376.72
2019-03-04T10:37:01.194Z,97384.48
2019-03-04T10:39:57.474Z,97381.00
2019-03-04T10:42:50.668Z,97387.94
2019-03-04T10:45:45.268Z,97388.39
2019-03-04T10:48:14.341Z,97365.16
2019-03-04T10:50:43.446Z,97372.55
2019-03-04T10:53:12.554Z,97374.84
2019-03-04T10:55:42.500Z,97370.15
2019-03-04T10:58:12.064Z,97374.73
2019-03-04T11:00:41.175Z,97381.48
2019-03-04T11:03:10.300Z,97389.63
2019-03-04T11:05:39.366Z,97379.87
2019-03-04T11:08:08.477Z,97374.80
2019-03-04T11:10:37.692Z,97366.06
2019-03-04T11:13:07.121Z,97370.95
2019-03-04T11:15:36.187Z,97387.75
2019-03-04T11:18:05.278Z,97339.42
2019-03-04T11:20:34.382Z,97352.86
2019-03-04T11:23:03.504Z,97342.57
2019-03-04T11:25:33.295Z,97337.58
2019-03-04T11:28:02.388Z,97348.47
2019-03-04T11:30:32.853Z,97472.84
2019-03-04T11:33:01.891Z,97462.46
2019-03-04T11:35:31.003Z,97468.36
2019-03-04T11:38:00.132Z,97478.84
2019-03-04T11:40:47.388Z,97490.17
2019-03-04T11:43:16.522Z,97579.48
2019-03-04T11:45:45.668Z,97509.02
2019-03-04T11:48:14.852Z,97523.53
2019-03-04T11:50:44.022Z,97519.20
2019-03-04T11:53:13.082Z,97511.93
2019-03-04T11:55:42.305Z,97541.44
2019-03-04T11:58:11.456Z,97538.73
2019-03-04T12:00:44.162Z,97546.87
2019-03-04T12:03:13.485Z,97544.06
2019-03-04T12:05:42.645Z,97543.97
2019-03-04T12:08:11.730Z,97550.59
2019-03-04T12:10:40.833Z,97561.05
2019-03-04T12:13:09.992Z,97568.37
2019-03-04T12:15:39.155Z,97573.06
2019-03-04T12:18:08.315Z,97563.67
2019-03-04T12:20:37.484Z,97579.21
2019-03-04T12:23:06.662Z,97583.50
2019-03-04T12:25:35.850Z,97594.41
2019-03-04T12:28:04.970Z,97605.81
2019-03-04T12:30:34.075Z,97603.73
2019-03-04T12:33:03.861Z,97609.86
2019-03-04T12:35:33.055Z,97608.53
2019-03-04T12:38:02.139Z,97612.25
2019-03-04T12:40:31.259Z,97636.91
2019-03-04T12:43:00.494Z,97625.19
2019-03-04T12:45:34.530Z,97628.03
2019-03-04T12:48:00.621Z,97620.44
2019-03-04T12:50:29.841Z,97629.11
2019-03-04T12:52:58.948Z,97639.66
2019-03-04T12:55:28.113Z,97655.42
2019-03-04T12:57:57.196Z,97664.45
2019-03-04T13:00:26.268Z,97661.80
2019-03-04T13:02:57.968Z,97668.70
2019-03-04T13:05:26.168Z,97666.07
2019-03-04T13:07:55.440Z,97681.73
2019-03-04T13:10:24.458Z,97686.62
2019-03-04T13:12:53.976Z,97698.73
2019-03-04T13:15:24.017Z,97697.80
2019-03-04T13:17:53.223Z,97710.22
2019-03-04T13:20:22.380Z,97717.86
2019-03-04T13:22:51.519Z,97717.95
2019-03-04T13:25:21.279Z,97723.02
2019-03-04T13:27:50.493Z,97719.41
2019-03-04T13:30:21.596Z,97717.84
2019-03-04T13:32:50.691Z,97720.19
2019-03-04T13:35:24.446Z,97719.45
2019-03-04T13:37:52.361Z,97731.55
2019-03-04T13:40:21.504Z,97750.50
2019-03-04T13:42:50.614Z,97751.86
2019-03-04T13:45:19.786Z,97765.55
2019-03-04T13:47:48.986Z,97766.44
2019-03-04T13:50:19.588Z,97775.13
2019-03-04T13:52:48.787Z,97771.84
2019-03-04T13:55:19.974Z,97787.62
2019-03-04T13:57:49.339Z,97802.65
2019-03-04T14:00:22.328Z,97802.63
2019-03-04T14:02:51.466Z,97792.55
2019-03-04T14:05:21.213Z,97795.81
2019-03-04T14:07:50.449Z,97791.02
2019-03-04T14:10:20.239Z,97796.58
2019-03-04T14:12:49.378Z,97813.67
2019-03-04T14:15:21.824Z,97808.71
2019-03-04T14:17:51.011Z,97815.27
2019-03-04T14:20:20.155Z,97828.12
2019-03-04T14:22:57.192Z,97821.17
2019-03-04T14:25:20.260Z,97836.73
2019-03-04T14:27:49.375Z,97837.76
2019-03-04T14:30:18.467Z,97843.08
2019-03-04T14:32:47.948Z,97849.00
2019-03-04T14:35:17.023Z,97847.23
2019-03-04T14:37:46.170Z,97849.31
2019-03-04T14:40:16.268Z,97870.52
2019-03-04T14:42:45.363Z,97865.84
2019-03-04T14:45:17.070Z,97865.55
2019-03-04T14:47:46.192Z,97869.78
2019-03-04T14:50:16.288Z,97879.19
2019-03-04T14:52:45.489Z,97872.95
2019-03-04T14:55:16.408Z,97877.23
2019-03-04T14:57:45.771Z,97890.02
2019-03-04T15:00:17.868Z,97893.56
2019-03-04T15:02:47.000Z,97912.01
2019-03-04T15:05:16.121Z,97931.50
2019-03-04T15:07:45.287Z,97904.67
2019-03-04T15:10:15.530Z,97924.39
2019-03-04T15:12:44.712Z,97927.28
2019-03-04T15:15:14.485Z,97935.84
2019-03-04T15:17:43.661Z,97930.59
2019-03-04T15:20:16.383Z,97948.09
2019-03-04T15:22:45.498Z,97954.06
2019-03-04T15:25:18.459Z,97949.53
2019-03-04T15:27:47.620Z,97960.95
2019-03-04T15:30:16.786Z,97959.36
2019-03-04T15:32:45.976Z,97963.69
2019-03-04T15:35:15.088Z,97970.33
2019-03-04T15:37:44.275Z,97980.44
2019-03-04T15:40:13.524Z,97985.95
2019-03-04T15:42:42.854Z,97985.62
2019-03-04T15:45:12.467Z,97988.98
2019-03-04T15:47:41.718Z,97992.72
2019-03-04T15:50:10.876Z,97997.05
2019-03-04T15:52:40.050Z,98002.88
2019-03-04T15:55:12.750Z,98015.74
2019-03-04T15:57:41.890Z,98015.12
2019-03-04T16:00:11.805Z,98000.84
2019-03-04T16:02:40.941Z,98030.66
2019-03-04T16:05:10.531Z,98022.80
2019-03-04T16:07:39.612Z,98036.38
2019-03-04T16:10:11.389Z,98042.85
2019-03-04T16:12:40.961Z,98043.57
2019-03-04T16:15:13.757Z,98058.13
2019-03-04T16:17:42.931Z,98059.39
2019-03-04T16:20:16.337Z,98056.09
2019-03-04T16:22:44.045Z,98068.13
2019-03-04T16:25:13.345Z,98073.50
2019-03-04T16:27:42.545Z,98069.88
2019-03-04T16:30:14.227Z,98097.69
2019-03-04T16:32:43.399Z,98085.91
2019-03-04T16:35:12.524Z,98090.02
2019-03-04T16:37:41.646Z,98101.45
2019-03-04T16:40:13.663Z,98098.23
2019-03-04T16:42:42.847Z,98107.17
2019-03-04T16:45:13.061Z,98113.38
2019-03-04T16:47:42.267Z,98119.63
2019-03-04T16:50:12.689Z,98116.22
2019-03-04T16:52:42.078Z,98121.70
2019-03-04T16:55:13.137Z,98128.30
2019-03-04T16:57:42.230Z,98130.56
2019-03-04T17:00:13.678Z,98134.26
2019-03-04T17:02:42.892Z,98138.83
2019-03-04T17:05:12.983Z,98145.18
2019-03-04T17:07:42.316Z,98148.87
2019-03-04T17:10:12.431Z,98151.66
2019-03-04T17:12:41.696Z,98164.03
2019-03-04T17:15:13.183Z,98161.17
2019-03-04T17:17:42.324Z,98157.88
2019-03-04T17:20:12.030Z,98163.59
2019-03-04T17:22:41.486Z,98160.30
2019-03-04T17:25:11.636Z,98164.73
2019-03-04T17:27:41.512Z,98169.65
2019-03-04T17:30:12.098Z,98184.19
2019-03-04T17:32:43.824Z,98181.29
2019-03-04T17:35:15.304Z,98186.56
2019-03-04T17:37:44.504Z,98202.87
2019-03-04T17:40:14.176Z,98200.84
2019-03-04T17:42:43.337Z,98200.55
2019-03-04T17:45:13.822Z,98226.38
2019-03-04T17:47:42.933Z,98207.31
2019-03-04T17:50:14.382Z,98218.75
2019-03-04T17:52:43.570Z,98223.14
2019-03-04T17:55:13.308Z,98224.45
2019-03-04T17:57:42.415Z,98226.73
2019-03-04T18:00:13.554Z,98225.47
2019-03-04T18:02:42.701Z,98232.95
2019-03-04T18:05:12.055Z,98234.36
2019-03-04T18:07:41.174Z,98236.57
2019-03-04T18:10:12.380Z,98238.78
2019-03-04T18:12:41.473Z,98234.90
2019-03-04T18:15:13.772Z,98240.63
2019-03-04T18:17:42.818Z,98246.00
2019-03-04T18:20:12.523Z,98249.41
2019-03-04T18:22:42.922Z,98259.94
2019-03-04T18:25:16.001Z,98259.53
2019-03-04T18:27:50.319Z,98261.27
2019-03-04T18:30:55.757Z,98265.20
2019-03-04T18:34:04.717Z,98259.67
2019-03-04T18:37:05.213Z,98269.82
2019-03-04T18:40:24.968Z,98272.27
2019-03-04T18:44:02.426Z,98279.36
2019-03-04T18:47:09.967Z,98274.61
2019-03-04T18:49:39.090Z,98293.39
2019-03-04T18:52:08.286Z,98289.51
2019-03-04T18:54:37.512Z,98288.51
2019-03-04T18:57:06.622Z,98282.98
2019-03-04T18:59:35.754Z,98286.39
2019-03-04T19:02:04.936Z,98295.63
2019-03-04T19:04:34.077Z,98286.89
2019-03-04T19:07:03.150Z,98299.55
2019-03-04T19:09:32.261Z,98296.84
2019-03-04T19:12:01.396Z,98298.55
2019-03-04T19:14:30.554Z,98297.34
2019-03-04T19:16:59.829Z,98306.11
2019-03-04T19:19:28.957Z,98302.59
2019-03-04T19:21:58.043Z,98298.28
2019-03-04T19:24:27.250Z,98303.09
2019-03-04T19:26:56.425Z,98296.53
2019-03-04T19:29:25.647Z,98305.81
2019-03-04T19:31:55.098Z,98301.86
2019-03-04T19:34:24.268Z,98307.55
2019-03-04T19:36:53.364Z,98306.65
2019-03-04T19:39:22.483Z,98307.14
2019-03-04T19:41:51.562Z,98304.59
2019-03-04T19:44:20.698Z,98310.56
2019-03-04T19:46:49.924Z,98312.37
2019-03-04T19:49:20.028Z,98317.16
2019-03-04T19:51:49.166Z,98324.50
2019-03-04T19:54:18.254Z,98319.80
2019-03-04T19:56:47.353Z,98331.24
2019-03-04T19:59:16.529Z,98337.77
2019-03-04T20:01:45.607Z,98332.98
2019-03-04T20:04:14.700Z,98328.13
2019-03-04T20:06:43.769Z,98332.30
2019-03-04T20:09:12.869Z,98328.41
2019-03-04T20:11:42.140Z,98333.98
2019-03-04T20:14:11.324Z,98330.59
2019-03-04T20:16:40.396Z,98327.57
2019-03-04T20:19:09.644Z,98327.16
2019-03-04T20:21:38.740Z,98325.39
2019-03-04T20:24:07.835Z,98324.55
2019-03-04T20:26:37.020Z,98324.46
2019-03-04T20:29:06.207Z,98325.62
2019-03-04T20:31:35.399Z,98328.97
2019-03-04T20:34:04.837Z,98317.06
2019-03-04T20:36:33.930Z,98321.26
2019-03-04T20:39:03.246Z,98321.91
2019-03-04T20:41:32.292Z,98318.80
2019-03-04T20:44:01.369Z,98305.47
2019-03-04T20:46:30.452Z,98310.03
2019-03-04T20:48:59.526Z,98309.09
2019-03-04T20:51:28.610Z,98315.42
2019-03-04T20:53:57.723Z,98326.19
2019-03-04T20:56:26.860Z,98325.61
2019-03-04T20:58:55.939Z,98320.75
2019-03-04T21:01:25.094Z,98330.30
2019-03-04T21:03:54.113Z,98344.18
2019-03-04T21:06:23.261Z,98339.02
2019-03-04T21:08:52.474Z,98334.59
2019-03-04T21:11:21.536Z,98339.89
2019-03-04T21:13:50.601Z,98347.33
2019-03-04T21:16:19.755Z,98342.11
2019-03-04T21:18:48.841Z,98347.33
2019-03-04T21:21:18.749Z,98367.95
2019-03-04T21:23:48.625Z,98397.11
2019-03-04T21:26:20.839Z,98395.89
2019-03-04T21:29:30.494Z,98438.41
2019-03-04T21:32:21.449Z,98453.91
2019-03-04T21:35:56.024Z,98447.88
2019-03-04T21:38:30.763Z,98432.61
2019-03-04T21:41:36.852Z,98437.59
2019-03-04T21:44:45.680Z,98440.69
2019-03-04T21:47:30.545Z,98432.12
2019-03-04T21:49:59.743Z,98443.27
2019-03-04T21:52:52.907Z,98440.12
2019-03-04T21:55:29.967Z,98440.45
2019-03-04T21:57:59.126Z,98451.76
2019-03-04T22:00:34.791Z,98455.59
2019-03-04T22:03:17.090Z,98455.20
2019-03-04T22:05:50.273Z,98458.20
2019-03-04T22:08:16.944Z,98456.81
2019-03-04T22:10:46.147Z,98457.17
2019-03-04T22:13:15.260Z,98460.21
2019-03-04T22:15:44.441Z,98458.50
2019-03-04T22:18:13.519Z,98454.97
2019-03-04T22:20:43.761Z,98455.48
2019-03-04T22:23:12.863Z,98437.75
2019-03-04T22:25:41.930Z,98462.50
2019-03-04T22:28:11.186Z,98459.91
2019-03-04T22:30:40.259Z,98464.23
2019-03-04T22:33:09.330Z,98459.94
2019-03-04T22:35:38.538Z,98459.94
2019-03-04T22:38:07.633Z,98474.98
2019-03-04T22:40:36.692Z,98460.59
2019-03-04T22:43:05.819Z,98481.86
2019-03-04T22:45:35.032Z,98453.95
2019-03-04T22:48:04.082Z,98481.27
2019-03-04T22:50:33.145Z,98485.09
2019-03-04T22:53:02.247Z,98484.17
2019-03-04T22:55:34.086Z,98477.13
2019-03-04T22:58:03.243Z,98475.35
2019-03-04T23:01:17.678Z,98483.36
2019-03-04T23:03:47.676Z,98488.58
2019-03-04T23:06:20.540Z,98494.92
2019-03-04T23:08:49.742Z,98498.75
2019-03-04T23:11:20.241Z,98493.83
2019-03-04T23:14:06.965Z,98498.11
2019-03-04T23:16:36.009Z,98500.95
2019-03-04T23:19:05.070Z,98500.39
2019-03-04T23:21:34.158Z,98511.30
2019-03-04T23:24:03.276Z,98505.61
2019-03-04T23:26:32.322Z,98509.44
2019-03-04T23:29:01.359Z,98508.45
2019-03-04T23:31:30.489Z,98510.55
2019-03-04T23:33:59.621Z,98530.12
2019-03-04T23:36:28.769Z,98518.77
2019-03-04T23:38:57.852Z,98518.80
2019-03-04T23:41:26.918Z,98520.39
2019-03-04T23:43:55.978Z,98522.72
2019-03-04T23:46:25.131Z,98534.47
2019-03-04T23:48:54.245Z,98520.48
2019-03-04T23:51:23.376Z,98523.09
2019-03-04T23:53:52.473Z,98533.52
2019-03-04T23:56:21.526Z,98504.11
2019-03-04T23:58:50.743Z,98532.91
